KLM87E EHAM-EBBR
Flight info
| Callsign | KLM87E |
|---|---|
| Flight time | 0h 27m |
| Altitude | 12000 |
| Route | WOODY |
| Aircraft | B789/H-SDE1E2E3FGHIJ2J3J4J5M1RWXY/LB1D1 |
Departure
| Time | 2026-04-18 10:14 |
|---|---|
| Airport | Amsterdam Airport Schiphol (EHAM) |
Arrival
| Time | 2026-04-18 10:41 |
|---|---|
| Airport | Brussels Airport (EBBR) |
| Time | Latitude | Longitude | Altitude | Speed | Heading |
|---|---|---|---|---|---|
| 2026-04-18 09:46 | 52.31364 | 4.75804 | 4 ft | 0 kts | 267° |
| 2026-04-18 09:59 | 52.31364 | 4.75815 | 4 ft | 2 kts | 267° |
| 2026-04-18 09:59 | 52.31365 | 4.75848 | 4 ft | 3 kts | 267° |
| 2026-04-18 10:00 | 52.31381 | 4.75909 | 7 ft | 3 kts | 219° |
| 2026-04-18 10:00 | 52.31399 | 4.75924 | 6 ft | 3 kts | 187° |
| 2026-04-18 10:00 | 52.31421 | 4.75922 | 7 ft | 4 kts | 160° |
| 2026-04-18 10:00 | 52.31440 | 4.75897 | 7 ft | 4 kts | 116° |
| 2026-04-18 10:01 | 52.31443 | 4.75855 | 7 ft | 8 kts | 87° |
| 2026-04-18 10:01 | 52.31442 | 4.75800 | 7 ft | 0 kts | 87° |
| 2026-04-18 10:03 | 52.31442 | 4.75838 | 7 ft | 9 kts | 89° |
| 2026-04-18 10:03 | 52.31446 | 4.75996 | 4 ft | 19 kts | 86° |
| 2026-04-18 10:04 | 52.31456 | 4.76263 | 5 ft | 26 kts | 86° |
| 2026-04-18 10:04 | 52.31466 | 4.76561 | 5 ft | 27 kts | 87° |
| 2026-04-18 10:04 | 52.31477 | 4.76868 | 4 ft | 27 kts | 86° |
| 2026-04-18 10:04 | 52.31469 | 4.77176 | 4 ft | 26 kts | 119° |
| 2026-04-18 10:05 | 52.31349 | 4.77403 | 4 ft | 27 kts | 131° |
| 2026-04-18 10:05 | 52.31192 | 4.77497 | 5 ft | 25 kts | 181° |
| 2026-04-18 10:05 | 52.31021 | 4.77483 | 5 ft | 24 kts | 183° |
| 2026-04-18 10:05 | 52.30850 | 4.77467 | 5 ft | 24 kts | 183° |
| 2026-04-18 10:06 | 52.30767 | 4.77460 | 4 ft | 7 kts | 184° |
| 2026-04-18 10:06 | 52.30744 | 4.77457 | 4 ft | 0 kts | 183° |
| 2026-04-18 10:06 | 52.30743 | 4.77457 | 4 ft | 1 kts | 183° |
| 2026-04-18 10:06 | 52.30722 | 4.77456 | 4 ft | 4 kts | 182° |
| 2026-04-18 10:07 | 52.30667 | 4.77467 | 4 ft | 12 kts | 163° |
| 2026-04-18 10:07 | 52.30599 | 4.77515 | 4 ft | 8 kts | 154° |
| 2026-04-18 10:07 | 52.30589 | 4.77523 | 4 ft | 0 kts | 153° |
| 2026-04-18 10:08 | 52.30586 | 4.77526 | 4 ft | 3 kts | 153° |
| 2026-04-18 10:08 | 52.30567 | 4.77542 | 4 ft | 2 kts | 152° |
| 2026-04-18 10:09 | 52.30549 | 4.77558 | 4 ft | 4 kts | 152° |
| 2026-04-18 10:09 | 52.30522 | 4.77581 | 4 ft | 0 kts | 153° |
| 2026-04-18 10:09 | 52.30521 | 4.77581 | 4 ft | 0 kts | 153° |
| 2026-04-18 10:10 | 52.30509 | 4.77592 | 4 ft | 6 kts | 152° |
| 2026-04-18 10:10 | 52.30446 | 4.77635 | 4 ft | 11 kts | 178° |
| 2026-04-18 10:11 | 52.30400 | 4.77591 | 4 ft | 8 kts | 229° |
| 2026-04-18 10:11 | 52.30393 | 4.77575 | 4 ft | 0 kts | 234° |
| 2026-04-18 10:13 | 52.30383 | 4.77552 | 3 ft | 10 kts | 235° |
| 2026-04-18 10:13 | 52.30238 | 4.77175 | 2 ft | 70 kts | 238° |
| 2026-04-18 10:14 | 52.29869 | 4.76213 | 2 ft | 128 kts | 237° |
| 2026-04-18 10:14 | 52.29320 | 4.74775 | 225 ft | 154 kts | 244° |
| 2026-04-18 10:14 | 52.28793 | 4.73316 | 1050 ft | 153 kts | 244° |
| 2026-04-18 10:14 | 52.28412 | 4.72283 | 1488 ft | 164 kts | 240° |
| 2026-04-18 10:15 | 52.27781 | 4.70730 | 2505 ft | 170 kts | 237° |
| 2026-04-18 10:15 | 52.27056 | 4.69025 | 3181 ft | 196 kts | 230° |
| 2026-04-18 10:15 | 52.26698 | 4.68520 | 3341 ft | 209 kts | 214° |
| 2026-04-18 10:15 | 52.25842 | 4.68006 | 3905 ft | 219 kts | 192° |
| 2026-04-18 10:16 | 52.24827 | 4.67971 | 4960 ft | 221 kts | 175° |
| 2026-04-18 10:16 | 52.23372 | 4.69061 | 5844 ft | 240 kts | 153° |
| 2026-04-18 10:16 | 52.21885 | 4.70426 | 6025 ft | 252 kts | 150° |
| 2026-04-18 10:16 | 52.20494 | 4.71980 | 7084 ft | 236 kts | 153° |
| 2026-04-18 10:17 | 52.19044 | 4.73289 | 7918 ft | 241 kts | 158° |
| 2026-04-18 10:17 | 52.17525 | 4.74473 | 8824 ft | 242 kts | 161° |
| 2026-04-18 10:17 | 52.15874 | 4.75241 | 9338 ft | 258 kts | 172° |
| 2026-04-18 10:17 | 52.14030 | 4.75900 | 9786 ft | 278 kts | 171° |
| 2026-04-18 10:18 | 52.12131 | 4.76624 | 10592 ft | 286 kts | 171° |
| 2026-04-18 10:18 | 52.10104 | 4.77417 | 10819 ft | 313 kts | 170° |
| 2026-04-18 10:18 | 52.07895 | 4.78277 | 10992 ft | 340 kts | 170° |
| 2026-04-18 10:18 | 52.05520 | 4.79197 | 11330 ft | 356 kts | 170° |
| 2026-04-18 10:19 | 52.03114 | 4.80135 | 12099 ft | 360 kts | 170° |
| 2026-04-18 10:19 | 52.00620 | 4.80973 | 12212 ft | 364 kts | 178° |
| 2026-04-18 10:19 | 51.98138 | 4.80716 | 12221 ft | 354 kts | 194° |
| 2026-04-18 10:19 | 51.95809 | 4.79779 | 12212 ft | 352 kts | 202° |
| 2026-04-18 10:20 | 51.93627 | 4.78012 | 12216 ft | 349 kts | 211° |
| 2026-04-18 10:20 | 51.91537 | 4.76067 | 12218 ft | 349 kts | 211° |
| 2026-04-18 10:20 | 51.89380 | 4.74236 | 12217 ft | 350 kts | 207° |
| 2026-04-18 10:20 | 51.87158 | 4.72593 | 12213 ft | 351 kts | 206° |
| 2026-04-18 10:21 | 51.84944 | 4.70933 | 12221 ft | 351 kts | 207° |
| 2026-04-18 10:21 | 51.82753 | 4.69198 | 12216 ft | 350 kts | 208° |
| 2026-04-18 10:21 | 51.80567 | 4.67463 | 12220 ft | 350 kts | 208° |
| 2026-04-18 10:21 | 51.78396 | 4.65777 | 12218 ft | 351 kts | 207° |
| 2026-04-18 10:22 | 51.76195 | 4.64079 | 12215 ft | 350 kts | 207° |
| 2026-04-18 10:22 | 51.73996 | 4.62371 | 12217 ft | 350 kts | 208° |
| 2026-04-18 10:22 | 51.71796 | 4.60659 | 12215 ft | 350 kts | 208° |
| 2026-04-18 10:22 | 51.69598 | 4.58954 | 12218 ft | 351 kts | 207° |
| 2026-04-18 10:23 | 51.67400 | 4.57254 | 12215 ft | 351 kts | 207° |
| 2026-04-18 10:23 | 51.65198 | 4.55552 | 12216 ft | 350 kts | 207° |
| 2026-04-18 10:23 | 51.63028 | 4.53878 | 12215 ft | 350 kts | 207° |
| 2026-04-18 10:23 | 51.60827 | 4.52181 | 12219 ft | 350 kts | 207° |
| 2026-04-18 10:24 | 51.58630 | 4.50489 | 12214 ft | 350 kts | 207° |
| 2026-04-18 10:24 | 51.56435 | 4.48801 | 12213 ft | 350 kts | 207° |
| 2026-04-18 10:24 | 51.54239 | 4.47114 | 12213 ft | 349 kts | 207° |
| 2026-04-18 10:24 | 51.52043 | 4.45429 | 12219 ft | 350 kts | 207° |
| 2026-04-18 10:25 | 51.49850 | 4.43747 | 12216 ft | 350 kts | 207° |
| 2026-04-18 10:25 | 51.47656 | 4.42068 | 12043 ft | 346 kts | 207° |
| 2026-04-18 10:25 | 51.45590 | 4.40492 | 11353 ft | 314 kts | 207° |
| 2026-04-18 10:25 | 51.43730 | 4.39073 | 11069 ft | 275 kts | 207° |
| 2026-04-18 10:26 | 51.42114 | 4.37839 | 10954 ft | 249 kts | 208° |
| 2026-04-18 10:26 | 51.40491 | 4.36590 | 10891 ft | 262 kts | 208° |
| 2026-04-18 10:26 | 51.38876 | 4.35358 | 10802 ft | 256 kts | 207° |
| 2026-04-18 10:26 | 51.37249 | 4.34119 | 10730 ft | 261 kts | 207° |
| 2026-04-18 10:27 | 51.35609 | 4.32870 | 10658 ft | 262 kts | 207° |
| 2026-04-18 10:27 | 51.33985 | 4.31634 | 10490 ft | 257 kts | 207° |
| 2026-04-18 10:27 | 51.32375 | 4.30410 | 10238 ft | 258 kts | 207° |
| 2026-04-18 10:27 | 51.30750 | 4.29174 | 9954 ft | 259 kts | 207° |
| 2026-04-18 10:28 | 51.29081 | 4.28118 | 9677 ft | 261 kts | 192° |
| 2026-04-18 10:28 | 51.27266 | 4.28141 | 9398 ft | 262 kts | 171° |
| 2026-04-18 10:28 | 51.25583 | 4.29314 | 9141 ft | 270 kts | 147° |
| 2026-04-18 10:28 | 51.24296 | 4.31549 | 8863 ft | 277 kts | 123° |
| 2026-04-18 10:29 | 51.23387 | 4.34228 | 8577 ft | 275 kts | 121° |
| 2026-04-18 10:29 | 51.22492 | 4.36943 | 8283 ft | 276 kts | 120° |
| 2026-04-18 10:29 | 51.21596 | 4.39656 | 8013 ft | 276 kts | 121° |
| 2026-04-18 10:29 | 51.20705 | 4.42319 | 7734 ft | 270 kts | 121° |
| 2026-04-18 10:30 | 51.19814 | 4.44966 | 7470 ft | 272 kts | 121° |
| 2026-04-18 10:30 | 51.18971 | 4.47629 | 7196 ft | 272 kts | 112° |
| 2026-04-18 10:30 | 51.18486 | 4.50476 | 7019 ft | 261 kts | 108° |
| 2026-04-18 10:30 | 51.17923 | 4.53198 | 6840 ft | 255 kts | 110° |
| 2026-04-18 10:31 | 51.17374 | 4.55876 | 6659 ft | 253 kts | 109° |
| 2026-04-18 10:31 | 51.16859 | 4.58554 | 6479 ft | 252 kts | 109° |
| 2026-04-18 10:31 | 51.16348 | 4.61229 | 6302 ft | 252 kts | 109° |
| 2026-04-18 10:31 | 51.15833 | 4.63887 | 6126 ft | 251 kts | 109° |
| 2026-04-18 10:32 | 51.15315 | 4.66543 | 5957 ft | 250 kts | 109° |
| 2026-04-18 10:32 | 51.14801 | 4.69182 | 5775 ft | 249 kts | 109° |
| 2026-04-18 10:32 | 51.14288 | 4.71814 | 5562 ft | 249 kts | 109° |
| 2026-04-18 10:32 | 51.13776 | 4.74442 | 5303 ft | 248 kts | 109° |
| 2026-04-18 10:33 | 51.13263 | 4.77061 | 5073 ft | 246 kts | 109° |
| 2026-04-18 10:33 | 51.12758 | 4.79646 | 4874 ft | 245 kts | 109° |
| 2026-04-18 10:33 | 51.12193 | 4.82182 | 4672 ft | 241 kts | 121° |
| 2026-04-18 10:33 | 51.11033 | 4.84023 | 4489 ft | 235 kts | 151° |
| 2026-04-18 10:34 | 51.09500 | 4.84739 | 4329 ft | 230 kts | 176° |
| 2026-04-18 10:34 | 51.07992 | 4.85069 | 4229 ft | 215 kts | 173° |
| 2026-04-18 10:34 | 51.06531 | 4.85425 | 4072 ft | 210 kts | 174° |
| 2026-04-18 10:34 | 51.05085 | 4.85753 | 3914 ft | 208 kts | 174° |
| 2026-04-18 10:35 | 51.03660 | 4.86071 | 3763 ft | 208 kts | 175° |
| 2026-04-18 10:35 | 51.02237 | 4.86303 | 3600 ft | 204 kts | 183° |
| 2026-04-18 10:35 | 51.00949 | 4.85509 | 3417 ft | 197 kts | 216° |
| 2026-04-18 10:35 | 50.99906 | 4.84165 | 3305 ft | 189 kts | 221° |
| 2026-04-18 10:36 | 50.98924 | 4.82833 | 3182 ft | 181 kts | 221° |
| 2026-04-18 10:36 | 50.97975 | 4.81558 | 3051 ft | 176 kts | 221° |
| 2026-04-18 10:36 | 50.97064 | 4.80350 | 2940 ft | 166 kts | 221° |
| 2026-04-18 10:36 | 50.96286 | 4.79048 | 2806 ft | 161 kts | 233° |
| 2026-04-18 10:37 | 50.95738 | 4.77535 | 2647 ft | 154 kts | 249° |
| 2026-04-18 10:37 | 50.95364 | 4.76025 | 2564 ft | 141 kts | 245° |
| 2026-04-18 10:37 | 50.95035 | 4.74561 | 2528 ft | 146 kts | 250° |
| 2026-04-18 10:37 | 50.94673 | 4.73059 | 2438 ft | 147 kts | 249° |
| 2026-04-18 10:38 | 50.94316 | 4.71523 | 2339 ft | 146 kts | 249° |
| 2026-04-18 10:38 | 50.93963 | 4.69990 | 2237 ft | 151 kts | 249° |
| 2026-04-18 10:38 | 50.93605 | 4.68426 | 2126 ft | 152 kts | 250° |
| 2026-04-18 10:38 | 50.93243 | 4.66866 | 2010 ft | 147 kts | 250° |
| 2026-04-18 10:39 | 50.92888 | 4.65344 | 1916 ft | 150 kts | 248° |
| 2026-04-18 10:39 | 50.92534 | 4.63795 | 1709 ft | 149 kts | 250° |
| 2026-04-18 10:39 | 50.92175 | 4.62244 | 1482 ft | 151 kts | 249° |
| 2026-04-18 10:39 | 50.91816 | 4.60673 | 1293 ft | 150 kts | 249° |
| 2026-04-18 10:40 | 50.91456 | 4.59139 | 1103 ft | 147 kts | 250° |
| 2026-04-18 10:40 | 50.91117 | 4.57593 | 851 ft | 150 kts | 251° |
| 2026-04-18 10:40 | 50.90763 | 4.56064 | 674 ft | 145 kts | 250° |
| 2026-04-18 10:40 | 50.90421 | 4.54593 | 487 ft | 141 kts | 251° |
| 2026-04-18 10:41 | 50.90078 | 4.53130 | 315 ft | 143 kts | 252° |
| 2026-04-18 10:41 | 50.89743 | 4.51650 | 166 ft | 136 kts | 251° |
| 2026-04-18 10:41 | 50.89490 | 4.50576 | 171 ft | 71 kts | 250° |
| 2026-04-18 10:41 | 50.89363 | 4.50025 | 180 ft | 46 kts | 250° |
| 2026-04-18 10:42 | 50.89386 | 4.49626 | 175 ft | 33 kts | 308° |
| 2026-04-18 10:42 | 50.89529 | 4.49342 | 170 ft | 30 kts | 308° |
| 2026-04-18 10:42 | 50.89557 | 4.49284 | 170 ft | 0 kts | 307° |
| 2026-04-18 10:42 | 50.89563 | 4.49272 | 170 ft | 3 kts | 306° |
| 2026-04-18 10:43 | 50.89570 | 4.49255 | 170 ft | 0 kts | 306° |
| 2026-04-18 10:43 | 50.89574 | 4.49246 | 170 ft | 4 kts | 306° |
| 2026-04-18 10:44 | 50.89599 | 4.49192 | 168 ft | 8 kts | 309° |
| 2026-04-18 10:44 | 50.89659 | 4.49155 | 166 ft | 10 kts | 8° |
| 2026-04-18 10:44 | 50.89754 | 4.49190 | 166 ft | 16 kts | 14° |
| 2026-04-18 10:44 | 50.89867 | 4.49234 | 164 ft | 18 kts | 13° |
| 2026-04-18 10:45 | 50.90001 | 4.49290 | 158 ft | 22 kts | 15° |
| 2026-04-18 10:45 | 50.90168 | 4.49360 | 150 ft | 27 kts | 14° |
| 2026-04-18 10:45 | 50.90325 | 4.49424 | 144 ft | 22 kts | 14° |
| 2026-04-18 10:45 | 50.90402 | 4.49414 | 139 ft | 1 kts | 305° |
| 2026-04-18 10:46 | 50.90404 | 4.49343 | 138 ft | 12 kts | 258° |
| 2026-04-18 10:46 | 50.90395 | 4.49236 | 139 ft | 8 kts | 284° |
| 2026-04-18 10:46 | 50.90424 | 4.49137 | 134 ft | 12 kts | 299° |
| 2026-04-18 10:46 | 50.90436 | 4.49107 | 128 ft | 0 kts | 302° |